sensor_id;sensor_type;location;lat;lon;timestamp;pressure;altitude;pressure_sealevel;temperature;humidity
11985;BME280;6052;53.246;10.368;2023-08-07T00:01:30;99957.66;;;19.29;95.44
11985;BME280;6052;53.246;10.368;2023-08-07T00:03:59;99955.97;;;19.42;95.02
11985;BME280;6052;53.246;10.368;2023-08-07T00:06:29;99957.81;;;19.55;95.12
11985;BME280;6052;53.246;10.368;2023-08-07T00:08:58;99949.78;;;19.50;94.15
11985;BME280;6052;53.246;10.368;2023-08-07T00:11:30;99949.91;;;19.45;94.95
11985;BME280;6052;53.246;10.368;2023-08-07T00:14:00;99953.22;;;19.33;95.83
11985;BME280;6052;53.246;10.368;2023-08-07T00:16:29;99949.19;;;19.31;96.05
11985;BME280;6052;53.246;10.368;2023-08-07T00:18:59;99951.47;;;19.37;96.28
11985;BME280;6052;53.246;10.368;2023-08-07T00:21:29;99946.97;;;19.33;96.08
11985;BME280;6052;53.246;10.368;2023-08-07T00:23:58;99949.81;;;19.28;95.93
11985;BME280;6052;53.246;10.368;2023-08-07T00:26:31;99947.22;;;19.23;96.33
11985;BME280;6052;53.246;10.368;2023-08-07T00:29:01;99939.81;;;19.15;96.48
11985;BME280;6052;53.246;10.368;2023-08-07T00:31:31;99938.75;;;19.24;95.89
11985;BME280;6052;53.246;10.368;2023-08-07T00:34:00;99938.44;;;19.26;96.21
11985;BME280;6052;53.246;10.368;2023-08-07T00:36:30;99939.47;;;19.38;95.44
11985;BME280;6052;53.246;10.368;2023-08-07T00:39:01;99954.06;;;19.20;95.81
11985;BME280;6052;53.246;10.368;2023-08-07T00:41:37;99948.22;;;19.27;95.94
11985;BME280;6052;53.246;10.368;2023-08-07T00:44:06;99951.97;;;19.17;96.13
11985;BME280;6052;53.246;10.368;2023-08-07T00:46:36;99948.03;;;19.23;96.14
11985;BME280;6052;53.246;10.368;2023-08-07T00:49:09;99938.94;;;19.28;95.57
11985;BME280;6052;53.246;10.368;2023-08-07T00:51:44;99940.66;;;19.24;95.50
11985;BME280;6052;53.246;10.368;2023-08-07T00:54:15;99950.75;;;19.23;95.48
11985;BME280;6052;53.246;10.368;2023-08-07T00:56:48;99936.72;;;19.30;95.41
11985;BME280;6052;53.246;10.368;2023-08-07T00:59:19;99937.06;;;19.37;95.17
11985;BME280;6052;53.246;10.368;2023-08-07T01:01:48;99940.59;;;19.15;95.49
11985;BME280;6052;53.246;10.368;2023-08-07T01:04:18;99947.88;;;19.06;96.14
11985;BME280;6052;53.246;10.368;2023-08-07T01:06:47;99950.69;;;19.15;96.15
11985;BME280;6052;53.246;10.368;2023-08-07T01:09:17;99944.19;;;19.24;95.25
11985;BME280;6052;53.246;10.368;2023-08-07T01:11:57;99946.72;;;19.21;95.90
11985;BME280;6052;53.246;10.368;2023-08-07T01:14:32;99941.41;;;19.16;96.26
11985;BME280;6052;53.246;10.368;2023-08-07T01:17:07;99949.19;;;19.09;96.05
11985;BME280;6052;53.246;10.368;2023-08-07T01:19:39;99934.22;;;19.20;95.54
11985;BME280;6052;53.246;10.368;2023-08-07T01:22:16;99939.13;;;19.09;96.21
11985;BME280;6052;53.246;10.368;2023-08-07T01:24:47;99931.13;;;19.13;95.32
11985;BME280;6052;53.246;10.368;2023-08-07T01:27:28;99931.00;;;19.18;95.04
11985;BME280;6052;53.246;10.368;2023-08-07T01:30:08;99930.34;;;19.12;95.15
11985;BME280;6052;53.246;10.368;2023-08-07T01:32:43;99930.03;;;18.92;96.16
11985;BME280;6052;53.246;10.368;2023-08-07T01:35:16;99926.28;;;18.79;96.78
11985;BME280;6052;53.246;10.368;2023-08-07T01:37:51;99933.88;;;18.91;96.66
11985;BME280;6052;53.246;10.368;2023-08-07T01:40:23;99931.78;;;18.88;96.20
11985;BME280;6052;53.246;10.368;2023-08-07T01:42:53;99931.47;;;18.89;95.70
11985;BME280;6052;53.246;10.368;2023-08-07T01:45:23;99927.28;;;18.83;96.31
11985;BME280;6052;53.246;10.368;2023-08-07T01:47:53;99924.34;;;18.80;96.33
11985;BME280;6052;53.246;10.368;2023-08-07T01:50:24;99926.03;;;18.89;95.95
11985;BME280;6052;53.246;10.368;2023-08-07T01:52:56;99922.88;;;18.74;96.95
11985;BME280;6052;53.246;10.368;2023-08-07T01:55:25;99923.00;;;18.91;95.96
11985;BME280;6052;53.246;10.368;2023-08-07T01:57:54;99916.44;;;18.70;96.81
11985;BME280;6052;53.246;10.368;2023-08-07T02:00:24;99922.47;;;18.58;97.20
11985;BME280;6052;53.246;10.368;2023-08-07T02:02:53;99919.34;;;18.51;97.57
11985;BME280;6052;53.246;10.368;2023-08-07T02:05:23;99917.06;;;18.45;98.05
11985;BME280;6052;53.246;10.368;2023-08-07T02:07:52;99915.09;;;18.59;97.86
11985;BME280;6052;53.246;10.368;2023-08-07T02:10:26;99923.53;;;18.57;97.78
11985;BME280;6052;53.246;10.368;2023-08-07T02:12:58;99926.59;;;18.78;97.27
11985;BME280;6052;53.246;10.368;2023-08-07T02:15:29;99918.91;;;18.80;97.40
11985;BME280;6052;53.246;10.368;2023-08-07T02:18:01;99917.63;;;18.55;97.71
11985;BME280;6052;53.246;10.368;2023-08-07T02:20:34;99913.31;;;18.54;98.70
11985;BME280;6052;53.246;10.368;2023-08-07T02:23:05;99921.53;;;18.63;98.05
11985;BME280;6052;53.246;10.368;2023-08-07T02:25:37;99919.66;;;18.50;98.86
11985;BME280;6052;53.246;10.368;2023-08-07T02:28:06;99915.72;;;18.56;98.45
11985;BME280;6052;53.246;10.368;2023-08-07T02:30:36;99911.91;;;18.43;98.41
11985;BME280;6052;53.246;10.368;2023-08-07T02:33:05;99913.91;;;18.51;99.26
11985;BME280;6052;53.246;10.368;2023-08-07T02:35:36;99916.38;;;18.61;98.86
11985;BME280;6052;53.246;10.368;2023-08-07T02:38:09;99918.75;;;18.54;98.98
11985;BME280;6052;53.246;10.368;2023-08-07T02:40:41;99920.94;;;18.52;98.81
11985;BME280;6052;53.246;10.368;2023-08-07T02:43:13;99932.34;;;18.54;99.46
11985;BME280;6052;53.246;10.368;2023-08-07T02:45:42;99924.41;;;18.44;99.86
11985;BME280;6052;53.246;10.368;2023-08-07T02:48:12;99925.72;;;18.47;99.23
11985;BME280;6052;53.246;10.368;2023-08-07T02:50:41;99926.69;;;18.51;99.24
11985;BME280;6052;53.246;10.368;2023-08-07T02:53:10;99919.75;;;18.45;99.41
11985;BME280;6052;53.246;10.368;2023-08-07T02:55:45;99925.31;;;18.40;99.40
11985;BME280;6052;53.246;10.368;2023-08-07T02:58:14;99925.31;;;18.40;99.72
11985;BME280;6052;53.246;10.368;2023-08-07T03:00:44;99918.75;;;18.54;98.47
11985;BME280;6052;53.246;10.368;2023-08-07T03:03:13;99914.09;;;18.55;98.50
11985;BME280;6052;53.246;10.368;2023-08-07T03:05:48;99917.06;;;18.67;97.34
11985;BME280;6052;53.246;10.368;2023-08-07T03:08:19;99911.06;;;18.56;97.16
11985;BME280;6052;53.246;10.368;2023-08-07T03:10:55;99911.50;;;18.50;97.26
11985;BME280;6052;53.246;10.368;2023-08-07T03:13:25;99918.34;;;18.47;97.51
11985;BME280;6052;53.246;10.368;2023-08-07T03:16:01;99922.00;;;18.43;97.16
11985;BME280;6052;53.246;10.368;2023-08-07T03:18:31;99920.28;;;18.47;98.29
11985;BME280;6052;53.246;10.368;2023-08-07T03:21:01;99915.31;;;18.49;97.64
11985;BME280;6052;53.246;10.368;2023-08-07T03:23:37;99928.66;;;18.37;98.48
11985;BME280;6052;53.246;10.368;2023-08-07T03:26:12;99917.34;;;18.43;98.30
11985;BME280;6052;53.246;10.368;2023-08-07T03:28:45;99920.47;;;18.50;97.70
11985;BME280;6052;53.246;10.368;2023-08-07T03:31:15;99923.84;;;18.34;98.39
11985;BME280;6052;53.246;10.368;2023-08-07T03:33:45;99917.44;;;18.52;97.79
11985;BME280;6052;53.246;10.368;2023-08-07T03:36:14;99926.44;;;18.39;97.60
11985;BME280;6052;53.246;10.368;2023-08-07T03:38:44;99926.63;;;18.29;98.67
11985;BME280;6052;53.246;10.368;2023-08-07T03:41:16;99926.63;;;18.42;98.66
11985;BME280;6052;53.246;10.368;2023-08-07T03:43:45;99930.41;;;18.19;99.59
11985;BME280;6052;53.246;10.368;2023-08-07T03:46:14;99930.66;;;18.31;99.56
11985;BME280;6052;53.246;10.368;2023-08-07T03:48:44;99937.38;;;18.47;98.64
11985;BME280;6052;53.246;10.368;2023-08-07T03:51:13;99941.44;;;18.36;99.22
11985;BME280;6052;53.246;10.368;2023-08-07T03:53:43;99933.59;;;18.35;99.06
11985;BME280;6052;53.246;10.368;2023-08-07T03:56:18;99940.16;;;18.34;99.15
11985;BME280;6052;53.246;10.368;2023-08-07T03:58:47;99932.47;;;18.36;98.98
11985;BME280;6052;53.246;10.368;2023-08-07T04:01:17;99928.34;;;18.38;99.12
11985;BME280;6052;53.246;10.368;2023-08-07T04:03:46;99926.25;;;18.35;99.68
11985;BME280;6052;53.246;10.368;2023-08-07T04:06:16;99926.03;;;18.32;99.38
11985;BME280;6052;53.246;10.368;2023-08-07T04:08:45;99920.44;;;18.15;100.00
11985;BME280;6052;53.246;10.368;2023-08-07T04:11:18;99925.97;;;18.10;100.00
11985;BME280;6052;53.246;10.368;2023-08-07T04:13:47;99922.78;;;18.08;100.00
11985;BME280;6052;53.246;10.368;2023-08-07T04:16:17;99925.63;;;18.25;100.00
11985;BME280;6052;53.246;10.368;2023-08-07T04:18:46;99915.78;;;18.29;100.00
11985;BME280;6052;53.246;10.368;2023-08-07T04:21:15;99920.44;;;18.15;100.00
11985;BME280;6052;53.246;10.368;2023-08-07T04:23:45;99924.84;;;18.11;100.00
11985;BME280;6052;53.246;10.368;2023-08-07T04:26:14;99934.78;;;18.29;100.00
11985;BME280;6052;53.246;10.368;2023-08-07T04:28:46;99933.69;;;18.30;99.87
11985;BME280;6052;53.246;10.368;2023-08-07T04:31:16;99935.47;;;17.99;100.00
11985;BME280;6052;53.246;10.368;2023-08-07T04:33:45;99941.94;;;18.25;100.00
11985;BME280;6052;53.246;10.368;2023-08-07T04:36:14;99940.78;;;18.04;100.00
11985;BME280;6052;53.246;10.368;2023-08-07T04:38:44;99948.19;;;18.12;100.00
11985;BME280;6052;53.246;10.368;2023-08-07T04:41:13;99948.31;;;18.07;100.00
11985;BME280;6052;53.246;10.368;2023-08-07T04:43:45;99959.38;;;18.10;100.00
11985;BME280;6052;53.246;10.368;2023-08-07T04:46:15;99957.00;;;18.31;99.76
11985;BME280;6052;53.246;10.368;2023-08-07T04:48:44;99957.66;;;18.28;99.79
11985;BME280;6052;53.246;10.368;2023-08-07T04:51:14;99959.25;;;18.29;99.76
11985;BME280;6052;53.246;10.368;2023-08-07T04:53:43;99961.97;;;18.29;99.45
11985;BME280;6052;53.246;10.368;2023-08-07T04:56:12;99966.84;;;18.05;100.00
11985;BME280;6052;53.246;10.368;2023-08-07T04:58:42;99959.16;;;18.20;100.00
11985;BME280;6052;53.246;10.368;2023-08-07T05:01:14;99960.19;;;18.24;100.00
11985;BME280;6052;53.246;10.368;2023-08-07T05:03:43;99962.22;;;18.05;100.00
11985;BME280;6052;53.246;10.368;2023-08-07T05:06:13;99971.78;;;18.03;100.00
11985;BME280;6052;53.246;10.368;2023-08-07T05:08:42;99964.22;;;18.00;100.00
11985;BME280;6052;53.246;10.368;2023-08-07T05:11:12;99961.38;;;18.18;100.00
11985;BME280;6052;53.246;10.368;2023-08-07T05:13:41;99953.84;;;18.15;100.00
11985;BME280;6052;53.246;10.368;2023-08-07T05:16:13;99953.97;;;18.10;100.00
11985;BME280;6052;53.246;10.368;2023-08-07T05:18:45;99955.75;;;18.15;100.00
11985;BME280;6052;53.246;10.368;2023-08-07T05:21:16;99960.91;;;18.03;100.00
11985;BME280;6052;53.246;10.368;2023-08-07T05:23:46;99954.44;;;18.12;100.00
11985;BME280;6052;53.246;10.368;2023-08-07T05:26:19;99956.88;;;18.14;100.00
11985;BME280;6052;53.246;10.368;2023-08-07T05:28:49;99952.25;;;18.01;100.00
11985;BME280;6052;53.246;10.368;2023-08-07T05:31:21;99955.66;;;18.06;100.00
11985;BME280;6052;53.246;10.368;2023-08-07T05:33:52;99952.25;;;18.14;100.00
11985;BME280;6052;53.246;10.368;2023-08-07T05:36:21;99955.94;;;18.32;100.00
11985;BME280;6052;53.246;10.368;2023-08-07T05:38:51;99955.56;;;18.11;100.00
11985;BME280;6052;53.246;10.368;2023-08-07T05:41:20;99955.53;;;18.25;100.00
11985;BME280;6052;53.246;10.368;2023-08-07T05:43:50;99964.09;;;18.18;100.00
11985;BME280;6052;53.246;10.368;2023-08-07T05:46:22;99963.81;;;18.06;100.00
11985;BME280;6052;53.246;10.368;2023-08-07T05:48:51;99969.16;;;17.98;100.00
11985;BME280;6052;53.246;10.368;2023-08-07T05:51:21;99964.22;;;18.00;100.00
11985;BME280;6052;53.246;10.368;2023-08-07T05:53:50;99960.59;;;18.18;100.00
11985;BME280;6052;53.246;10.368;2023-08-07T05:56:20;99956.66;;;17.97;100.00
11985;BME280;6052;53.246;10.368;2023-08-07T05:58:49;99967.13;;;18.17;100.00
11985;BME280;6052;53.246;10.368;2023-08-07T06:01:18;99962.69;;;18.07;100.00
11985;BME280;6052;53.246;10.368;2023-08-07T06:03:51;99962.78;;;18.16;100.00
11985;BME280;6052;53.246;10.368;2023-08-07T06:06:21;99962.69;;;18.07;100.00
11985;BME280;6052;53.246;10.368;2023-08-07T06:08:50;99965.50;;;18.16;100.00
11985;BME280;6052;53.246;10.368;2023-08-07T06:11:20;99965.72;;;18.06;100.00
11985;BME280;6052;53.246;10.368;2023-08-07T06:13:50;99972.16;;;18.10;100.00
11985;BME280;6052;53.246;10.368;2023-08-07T06:16:19;99975.09;;;18.00;100.00
11985;BME280;6052;53.246;10.368;2023-08-07T06:18:51;99960.19;;;18.11;100.00
11985;BME280;6052;53.246;10.368;2023-08-07T06:21:21;99961.47;;;18.13;100.00
11985;BME280;6052;53.246;10.368;2023-08-07T06:23:51;99962.50;;;18.04;100.00
11985;BME280;6052;53.246;10.368;2023-08-07T06:26:20;99962.78;;;18.16;100.00
11985;BME280;6052;53.246;10.368;2023-08-07T06:28:50;99976.78;;;18.23;100.00
11985;BME280;6052;53.246;10.368;2023-08-07T06:31:19;99962.28;;;18.14;100.00
11985;BME280;6052;53.246;10.368;2023-08-07T06:33:51;99960.88;;;18.16;100.00
11985;BME280;6052;53.246;10.368;2023-08-07T06:36:21;99969.75;;;18.08;100.00
11985;BME280;6052;53.246;10.368;2023-08-07T06:38:50;99984.63;;;18.24;100.00
11985;BME280;6052;53.246;10.368;2023-08-07T06:41:20;99983.81;;;18.24;100.00
11985;BME280;6052;53.246;10.368;2023-08-07T06:43:49;99967.31;;;18.07;100.00
11985;BME280;6052;53.246;10.368;2023-08-07T06:46:18;99972.97;;;18.10;100.00
11985;BME280;6052;53.246;10.368;2023-08-07T06:48:53;99974.88;;;18.10;100.00
11985;BME280;6052;53.246;10.368;2023-08-07T06:51:23;99971.66;;;18.08;100.00
11985;BME280;6052;53.246;10.368;2023-08-07T06:53:52;99974.94;;;18.32;100.00
11985;BME280;6052;53.246;10.368;2023-08-07T06:56:22;99982.50;;;18.21;100.00
11985;BME280;6052;53.246;10.368;2023-08-07T06:58:51;99979.97;;;18.38;100.00
11985;BME280;6052;53.246;10.368;2023-08-07T07:01:21;99970.34;;;18.19;100.00
11985;BME280;6052;53.246;10.368;2023-08-07T07:03:50;99971.22;;;18.41;100.00
11985;BME280;6052;53.246;10.368;2023-08-07T07:06:23;99973.25;;;18.36;100.00
11985;BME280;6052;53.246;10.368;2023-08-07T07:08:52;99977.59;;;18.37;100.00
11985;BME280;6052;53.246;10.368;2023-08-07T07:11:23;99987.84;;;18.40;100.00
11985;BME280;6052;53.246;10.368;2023-08-07T07:13:52;99982.50;;;18.35;100.00
11985;BME280;6052;53.246;10.368;2023-08-07T07:16:21;99969.69;;;18.49;100.00
11985;BME280;6052;53.246;10.368;2023-08-07T07:18:54;99989.88;;;18.34;100.00
11985;BME280;6052;53.246;10.368;2023-08-07T07:21:27;99989.66;;;18.44;100.00
11985;BME280;6052;53.246;10.368;2023-08-07T07:23:56;99993.25;;;18.40;100.00
11985;BME280;6052;53.246;10.368;2023-08-07T07:26:26;99984.22;;;18.44;100.00
11985;BME280;6052;53.246;10.368;2023-08-07T07:28:55;99980.16;;;18.28;100.00
11985;BME280;6052;53.246;10.368;2023-08-07T07:31:24;99979.75;;;18.48;100.00
11985;BME280;6052;53.246;10.368;2023-08-07T07:33:54;99983.59;;;18.47;100.00
11985;BME280;6052;53.246;10.368;2023-08-07T07:36:23;99980.78;;;18.39;100.00
11985;BME280;6052;53.246;10.368;2023-08-07T07:38:55;99979.31;;;18.33;99.91
11985;BME280;6052;53.246;10.368;2023-08-07T07:41:25;99992.56;;;18.48;100.00
11985;BME280;6052;53.246;10.368;2023-08-07T07:43:54;99985.94;;;18.27;100.00
11985;BME280;6052;53.246;10.368;2023-08-07T07:46:26;100005.56;;;18.24;100.00
11985;BME280;6052;53.246;10.368;2023-08-07T07:48:55;100003.34;;;18.39;100.00
11985;BME280;6052;53.246;10.368;2023-08-07T07:51:25;100007.47;;;18.37;100.00
11985;BME280;6052;53.246;10.368;2023-08-07T07:53:58;100010.19;;;18.10;100.00
11985;BME280;6052;53.246;10.368;2023-08-07T07:56:40;100011.19;;;18.14;100.00
11985;BME280;6052;53.246;10.368;2023-08-07T07:59:13;100014.81;;;18.23;100.00
11985;BME280;6052;53.246;10.368;2023-08-07T08:01:43;100014.94;;;18.18;100.00
11985;BME280;6052;53.246;10.368;2023-08-07T08:04:12;100015.94;;;18.22;100.00
11985;BME280;6052;53.246;10.368;2023-08-07T08:06:42;100017.63;;;18.45;100.00
11985;BME280;6052;53.246;10.368;2023-08-07T08:09:14;100020.84;;;18.33;100.00
11985;BME280;6052;53.246;10.368;2023-08-07T08:11:43;100024.75;;;18.27;100.00
11985;BME280;6052;53.246;10.368;2023-08-07T08:14:12;100020.44;;;18.40;100.00
11985;BME280;6052;53.246;10.368;2023-08-07T08:16:42;100028.69;;;18.21;100.00
11985;BME280;6052;53.246;10.368;2023-08-07T08:19:12;100034.94;;;18.22;100.00
11985;BME280;6052;53.246;10.368;2023-08-07T08:21:43;100041.38;;;18.26;100.00
11985;BME280;6052;53.246;10.368;2023-08-07T08:24:14;100024.47;;;18.02;97.93
11985;BME280;6052;53.246;10.368;2023-08-07T08:26:44;100036.13;;;18.16;97.13
11985;BME280;6052;53.246;10.368;2023-08-07T08:29:14;100023.84;;;18.18;96.51
11985;BME280;6052;53.246;10.368;2023-08-07T08:31:44;100032.03;;;18.45;96.04
11985;BME280;6052;53.246;10.368;2023-08-07T08:34:13;100038.03;;;18.69;95.88
11985;BME280;6052;53.246;10.368;2023-08-07T08:36:42;100032.41;;;18.66;95.48
11985;BME280;6052;53.246;10.368;2023-08-07T08:39:14;100038.63;;;18.66;94.21
11985;BME280;6052;53.246;10.368;2023-08-07T08:41:46;100034.81;;;18.54;93.30
11985;BME280;6052;53.246;10.368;2023-08-07T08:44:17;100042.97;;;18.54;92.74
11985;BME280;6052;53.246;10.368;2023-08-07T08:46:49;100051.66;;;18.42;92.23
11985;BME280;6052;53.246;10.368;2023-08-07T08:49:28;100060.09;;;18.27;91.77
11985;BME280;6052;53.246;10.368;2023-08-07T08:51:59;100053.75;;;18.18;91.49
11985;BME280;6052;53.246;10.368;2023-08-07T08:54:32;100071.47;;;18.29;91.43
11985;BME280;6052;53.246;10.368;2023-08-07T08:57:03;100074.81;;;18.40;90.28
11985;BME280;6052;53.246;10.368;2023-08-07T08:59:33;100084.28;;;18.56;90.97
11985;BME280;6052;53.246;10.368;2023-08-07T09:02:04;100072.78;;;18.32;89.72
11985;BME280;6052;53.246;10.368;2023-08-07T09:04:33;100084.97;;;18.48;89.39
11985;BME280;6052;53.246;10.368;2023-08-07T09:07:04;100083.88;;;18.35;88.76
11985;BME280;6052;53.246;10.368;2023-08-07T09:09:36;100073.69;;;18.54;88.58
11985;BME280;6052;53.246;10.368;2023-08-07T09:12:08;100082.94;;;18.67;88.39
11985;BME280;6052;53.246;10.368;2023-08-07T09:14:41;100079.41;;;18.66;88.62
11985;BME280;6052;53.246;10.368;2023-08-07T09:17:12;100069.72;;;18.74;87.18
11985;BME280;6052;53.246;10.368;2023-08-07T09:19:43;100084.25;;;18.69;86.32
11985;BME280;6052;53.246;10.368;2023-08-07T09:22:12;100062.41;;;18.61;85.86
11985;BME280;6052;53.246;10.368;2023-08-07T09:24:44;100066.84;;;18.57;84.68
11985;BME280;6052;53.246;10.368;2023-08-07T09:27:14;100064.91;;;18.71;84.52
11985;BME280;6052;53.246;10.368;2023-08-07T09:29:44;100080.47;;;18.79;84.91
11985;BME280;6052;53.246;10.368;2023-08-07T09:32:15;100086.94;;;18.83;82.64
11985;BME280;6052;53.246;10.368;2023-08-07T09:34:45;100068.50;;;18.80;79.75
11985;BME280;6052;53.246;10.368;2023-08-07T09:37:14;100072.69;;;18.99;80.04
11985;BME280;6052;53.246;10.368;2023-08-07T09:39:47;100066.09;;;18.78;78.51
11985;BME280;6052;53.246;10.368;2023-08-07T09:42:16;100079.53;;;18.97;78.66
11985;BME280;6052;53.246;10.368;2023-08-07T09:44:46;100085.59;;;18.94;77.52
11985;BME280;6052;53.246;10.368;2023-08-07T09:47:17;100103.44;;;18.86;75.74
11985;BME280;6052;53.246;10.368;2023-08-07T09:49:47;100098.09;;;18.95;75.22
11985;BME280;6052;53.246;10.368;2023-08-07T09:52:17;100086.69;;;18.93;72.51
11985;BME280;6052;53.246;10.368;2023-08-07T09:54:50;100092.44;;;19.05;73.51
11985;BME280;6052;53.246;10.368;2023-08-07T09:57:19;100100.47;;;19.10;75.24
11985;BME280;6052;53.246;10.368;2023-08-07T09:59:49;100106.09;;;19.13;74.27
11985;BME280;6052;53.246;10.368;2023-08-07T10:02:19;100099.06;;;18.99;74.01
11985;BME280;6052;53.246;10.368;2023-08-07T10:04:51;100089.72;;;19.05;73.51
11985;BME280;6052;53.246;10.368;2023-08-07T10:07:22;100103.31;;;19.05;72.79
11985;BME280;6052;53.246;10.368;2023-08-07T10:09:54;100099.06;;;19.12;73.22
11985;BME280;6052;53.246;10.368;2023-08-07T10:12:24;100091.03;;;19.29;74.19
11985;BME280;6052;53.246;10.368;2023-08-07T10:14:55;100114.06;;;19.45;74.71
11985;BME280;6052;53.246;10.368;2023-08-07T10:17:25;100113.41;;;19.26;73.86
11985;BME280;6052;53.246;10.368;2023-08-07T10:19:54;100097.78;;;19.32;73.41
11985;BME280;6052;53.246;10.368;2023-08-07T10:22:25;100101.44;;;19.27;74.19
11985;BME280;6052;53.246;10.368;2023-08-07T10:25:00;100100.22;;;19.20;73.71
11985;BME280;6052;53.246;10.368;2023-08-07T10:27:33;100112.44;;;19.22;73.27
11985;BME280;6052;53.246;10.368;2023-08-07T10:30:06;100118.78;;;19.31;73.54
11985;BME280;6052;53.246;10.368;2023-08-07T10:32:39;100115.88;;;19.14;73.65
11985;BME280;6052;53.246;10.368;2023-08-07T10:35:23;100121.91;;;19.11;73.86
11985;BME280;6052;53.246;10.368;2023-08-07T10:37:52;100114.56;;;19.12;74.78
11985;BME280;6052;53.246;10.368;2023-08-07T10:40:25;100141.16;;;19.15;77.17
11985;BME280;6052;53.246;10.368;2023-08-07T10:42:59;100148.16;;;18.94;79.52
11985;BME280;6052;53.246;10.368;2023-08-07T10:45:29;100150.91;;;18.67;80.47
11985;BME280;6052;53.246;10.368;2023-08-07T10:48:03;100140.44;;;18.74;80.75
11985;BME280;6052;53.246;10.368;2023-08-07T10:50:35;100149.00;;;18.81;80.97
11985;BME280;6052;53.246;10.368;2023-08-07T10:53:19;100135.06;;;18.82;80.64
11985;BME280;6052;53.246;10.368;2023-08-07T10:55:51;100123.47;;;18.90;80.69
11985;BME280;6052;53.246;10.368;2023-08-07T10:58:24;100118.00;;;19.04;79.49
11985;BME280;6052;53.246;10.368;2023-08-07T11:01:15;100118.28;;;19.16;78.84
11985;BME280;6052;53.246;10.368;2023-08-07T11:03:48;100121.97;;;19.33;78.15
11985;BME280;6052;53.246;10.368;2023-08-07T11:06:22;100117.44;;;19.29;77.40
11985;BME280;6052;53.246;10.368;2023-08-07T11:08:53;100119.44;;;19.37;77.33
11985;BME280;6052;53.246;10.368;2023-08-07T11:11:26;100117.06;;;19.22;76.57
11985;BME280;6052;53.246;10.368;2023-08-07T11:13:56;100133.50;;;19.17;76.37
11985;BME280;6052;53.246;10.368;2023-08-07T11:16:25;100132.00;;;19.24;75.93
11985;BME280;6052;53.246;10.368;2023-08-07T11:18:55;100125.13;;;19.27;73.91
11985;BME280;6052;53.246;10.368;2023-08-07T11:21:25;100128.25;;;19.34;73.26
11985;BME280;6052;53.246;10.368;2023-08-07T11:23:55;100135.47;;;19.38;72.44
11985;BME280;6052;53.246;10.368;2023-08-07T11:26:27;100141.53;;;19.35;72.05
11985;BME280;6052;53.246;10.368;2023-08-07T11:28:57;100143.75;;;19.55;72.63
11985;BME280;6052;53.246;10.368;2023-08-07T11:31:27;100136.06;;;19.35;72.52
11985;BME280;6052;53.246;10.368;2023-08-07T11:33:57;100138.50;;;19.37;71.98
11985;BME280;6052;53.246;10.368;2023-08-07T11:36:29;100126.81;;;19.36;72.76
11985;BME280;6052;53.246;10.368;2023-08-07T11:39:00;100129.78;;;19.48;72.83
11985;BME280;6052;53.246;10.368;2023-08-07T11:41:32;100127.00;;;19.62;72.94
11985;BME280;6052;53.246;10.368;2023-08-07T11:44:02;100120.41;;;19.63;73.42
11985;BME280;6052;53.246;10.368;2023-08-07T11:46:32;100125.50;;;19.56;72.72
11985;BME280;6052;53.246;10.368;2023-08-07T11:49:01;100140.00;;;19.65;74.12
11985;BME280;6052;53.246;10.368;2023-08-07T11:51:32;100157.72;;;19.40;74.66
11985;BME280;6052;53.246;10.368;2023-08-07T11:54:02;100146.41;;;19.25;76.46
11985;BME280;6052;53.246;10.368;2023-08-07T11:56:34;100157.50;;;19.28;76.14
11985;BME280;6052;53.246;10.368;2023-08-07T11:59:04;100167.25;;;19.29;76.37
11985;BME280;6052;53.246;10.368;2023-08-07T12:01:37;100168.31;;;19.42;76.65
11985;BME280;6052;53.246;10.368;2023-08-07T12:04:10;100165.72;;;19.37;75.91
11985;BME280;6052;53.246;10.368;2023-08-07T12:06:52;100171.56;;;19.44;76.37
11985;BME280;6052;53.246;10.368;2023-08-07T12:09:23;100160.22;;;19.28;75.68
11985;BME280;6052;53.246;10.368;2023-08-07T12:11:58;100158.16;;;19.20;74.44
11985;BME280;6052;53.246;10.368;2023-08-07T12:14:30;100178.56;;;19.23;74.50
11985;BME280;6052;53.246;10.368;2023-08-07T12:17:01;100182.81;;;19.02;74.26
11985;BME280;6052;53.246;10.368;2023-08-07T12:19:38;100172.81;;;19.11;72.55
11985;BME280;6052;53.246;10.368;2023-08-07T12:22:10;100206.06;;;19.08;72.73
11985;BME280;6052;53.246;10.368;2023-08-07T12:24:40;100183.72;;;19.11;72.95
11985;BME280;6052;53.246;10.368;2023-08-07T12:27:13;100192.16;;;19.09;73.25
11985;BME280;6052;53.246;10.368;2023-08-07T12:29:42;100185.00;;;19.27;73.48
11985;BME280;6052;53.246;10.368;2023-08-07T12:32:11;100178.44;;;19.41;74.40
11985;BME280;6052;53.246;10.368;2023-08-07T12:34:41;100197.59;;;19.36;73.74
11985;BME280;6052;53.246;10.368;2023-08-07T12:37:13;100193.16;;;19.27;74.13
11985;BME280;6052;53.246;10.368;2023-08-07T12:39:42;100184.00;;;19.23;73.58
11985;BME280;6052;53.246;10.368;2023-08-07T12:42:17;100199.00;;;19.20;74.29
11985;BME280;6052;53.246;10.368;2023-08-07T12:44:49;100199.22;;;19.10;73.75
11985;BME280;6052;53.246;10.368;2023-08-07T12:47:19;100196.28;;;19.20;73.69
11985;BME280;6052;53.246;10.368;2023-08-07T12:49:48;100190.03;;;19.20;73.97
11985;BME280;6052;53.246;10.368;2023-08-07T12:52:18;100188.63;;;19.09;72.48
11985;BME280;6052;53.246;10.368;2023-08-07T12:54:47;100199.50;;;19.09;71.89
11985;BME280;6052;53.246;10.368;2023-08-07T12:57:19;100184.31;;;19.08;71.30
11985;BME280;6052;53.246;10.368;2023-08-07T12:59:52;100196.41;;;19.02;70.83
11985;BME280;6052;53.246;10.368;2023-08-07T13:02:21;100196.78;;;19.09;70.88
11985;BME280;6052;53.246;10.368;2023-08-07T13:04:51;100196.38;;;19.15;71.25
11985;BME280;6052;53.246;10.368;2023-08-07T13:07:20;100194.00;;;19.27;70.55
11985;BME280;6052;53.246;10.368;2023-08-07T13:09:51;100198.50;;;19.32;69.48
11985;BME280;6052;53.246;10.368;2023-08-07T13:12:24;100188.25;;;19.51;69.65